createdAt,value
2017-11-18T00:00:04.503Z,2
2017-11-18T00:05:02.965Z,2
2017-11-18T00:10:02.667Z,0
2017-11-18T00:15:03.324Z,0
2017-11-18T00:20:02.778Z,1
2017-11-18T00:25:03.385Z,4
2017-11-18T00:30:02.840Z,0
2017-11-18T00:35:03.484Z,2
2017-11-18T00:40:02.909Z,2
2017-11-18T00:45:03.527Z,4
2017-11-18T00:50:03.146Z,1
2017-11-18T00:55:02.802Z,3
2017-11-18T01:00:03.416Z,6
2017-11-18T01:05:03.630Z,4
2017-11-18T01:10:03.238Z,3
2017-11-18T01:15:02.913Z,6
2017-11-18T01:20:03.359Z,3
2017-11-18T01:25:02.973Z,5
2017-11-18T01:30:03.448Z,2
2017-11-18T01:35:03.062Z,6
2017-11-18T01:40:02.751Z,4
2017-11-18T01:45:03.302Z,5
2017-11-18T01:50:02.770Z,4
2017-11-18T01:55:03.195Z,4
2017-11-18T02:00:02.883Z,4
2017-11-18T02:05:03.545Z,3
2017-11-18T02:10:03.275Z,3
2017-11-18T02:15:02.922Z,3
2017-11-18T02:20:03.474Z,5
2017-11-18T02:25:03.118Z,3
2017-11-18T02:30:03.539Z,3
2017-11-18T02:35:03.194Z,7
2017-11-18T02:40:02.840Z,2
2017-11-18T02:45:03.520Z,1
2017-11-18T02:50:02.936Z,0
2017-11-18T02:55:03.468Z,3
2017-11-18T03:00:02.911Z,2
2017-11-18T03:05:03.580Z,2
2017-11-18T03:10:03.294Z,2
2017-11-18T03:15:02.804Z,4
2017-11-18T03:20:03.454Z,2
2017-11-18T03:25:03.180Z,5
2017-11-18T03:30:02.796Z,3
2017-11-18T03:35:03.188Z,4
2017-11-18T03:40:02.869Z,3
2017-11-18T03:45:03.533Z,5
2017-11-18T03:50:03.177Z,6
2017-11-18T03:55:02.613Z,5
2017-11-18T04:00:03.229Z,7
2017-11-18T04:05:02.812Z,5
2017-11-18T04:10:03.388Z,5
2017-11-18T04:15:02.982Z,7
2017-11-18T04:20:03.515Z,5
2017-11-18T04:25:03.022Z,2
2017-11-18T04:35:02.999Z,3
2017-11-18T04:40:02.634Z,6
2017-11-18T04:45:03.084Z,7
2017-11-18T04:50:02.638Z,5
2017-11-18T04:55:03.258Z,5
2017-11-18T05:00:02.898Z,5
2017-11-18T05:05:03.437Z,3
2017-11-18T05:10:03.154Z,7
2017-11-18T05:15:02.845Z,6
2017-11-18T05:20:03.546Z,6
2017-11-18T05:25:03.183Z,6
2017-11-18T05:30:03.627Z,4
2017-11-18T05:35:03.357Z,7
2017-11-18T05:40:03.049Z,5
2017-11-18T05:45:02.741Z,6
2017-11-18T05:50:03.254Z,4
2017-11-18T05:55:03.157Z,5
2017-11-18T06:00:02.837Z,6
2017-11-18T06:05:03.547Z,5
2017-11-18T06:10:03.214Z,7
2017-11-18T06:15:02.817Z,7
2017-11-18T06:20:03.392Z,4
2017-11-18T06:25:03.017Z,7
2017-11-18T06:30:03.487Z,7
2017-11-18T06:35:03.002Z,5
2017-11-18T06:40:02.671Z,7
2017-11-18T06:45:03.150Z,8
2017-11-18T06:50:02.804Z,5
2017-11-18T06:55:03.471Z,7
2017-11-18T07:00:03.050Z,9
2017-11-18T07:05:03.523Z,8
2017-11-18T07:10:03.133Z,10
2017-11-18T07:15:02.757Z,4
2017-11-18T07:20:03.275Z,7
2017-11-18T07:25:02.887Z,6
2017-11-18T07:30:03.309Z,6
2017-11-18T07:35:03.053Z,3
2017-11-18T07:40:02.713Z,5
2017-11-18T07:45:03.414Z,3
2017-11-18T07:50:02.976Z,5
2017-11-18T07:55:03.566Z,7
2017-11-18T08:00:03.165Z,4
2017-11-18T08:05:02.722Z,7
2017-11-18T08:10:03.403Z,6
2017-11-18T08:15:02.947Z,5
2017-11-18T08:20:02.711Z,5
2017-11-18T08:25:03.409Z,8
2017-11-18T08:30:03.000Z,5
2017-11-18T08:35:02.654Z,12
2017-11-18T08:40:03.151Z,7
2017-11-18T08:45:02.637Z,6
2017-11-18T08:50:03.225Z,9
2017-11-18T08:55:02.849Z,14
2017-11-18T09:00:03.295Z,7
2017-11-18T09:05:02.953Z,7
2017-11-18T09:10:02.690Z,10
2017-11-18T09:15:03.230Z,8
2017-11-18T09:20:02.954Z,6
2017-11-18T09:25:03.330Z,6
2017-11-18T09:30:03.037Z,10
2017-11-18T09:35:02.767Z,10
2017-11-18T09:40:03.475Z,8
2017-11-18T09:45:02.910Z,9
2017-11-18T09:50:03.682Z,7
2017-11-18T09:55:03.283Z,7
2017-11-18T10:00:02.898Z,11
2017-11-18T10:05:03.336Z,8
2017-11-18T10:10:02.966Z,9
2017-11-18T10:15:03.502Z,9
2017-11-18T10:20:03.029Z,7
2017-11-18T10:25:02.642Z,7
2017-11-18T10:30:03.292Z,5
2017-11-18T10:35:02.806Z,10
2017-11-18T10:40:03.311Z,5
2017-11-18T10:45:02.909Z,7
2017-11-18T10:50:03.451Z,6
2017-11-18T10:55:03.141Z,6
2017-11-18T11:00:02.766Z,7
2017-11-18T11:05:03.368Z,7
2017-11-18T11:10:03.075Z,4
2017-11-18T11:15:02.669Z,8
2017-11-18T11:20:03.299Z,6
2017-11-18T11:25:02.824Z,6
2017-11-18T11:30:03.463Z,10
2017-11-18T11:35:03.000Z,9
2017-11-18T11:40:03.634Z,6
2017-11-18T11:45:03.240Z,8
2017-11-18T11:50:02.893Z,7
2017-11-18T11:55:03.344Z,9
2017-11-18T12:00:02.972Z,6
2017-11-18T12:05:02.656Z,7
2017-11-18T12:10:03.165Z,7
2017-11-18T12:15:03.651Z,6
2017-11-18T12:20:03.223Z,6
2017-11-18T12:25:02.850Z,8
2017-11-18T12:30:03.537Z,7
2017-11-18T12:35:03.398Z,12
2017-11-18T12:40:02.884Z,11
2017-11-18T12:45:03.369Z,11
2017-11-18T12:50:02.942Z,6
2017-11-18T12:55:03.478Z,8
2017-11-18T13:00:02.905Z,9
2017-11-18T13:05:03.499Z,9
2017-11-18T13:10:02.988Z,9
2017-11-18T13:15:03.530Z,11
2017-11-18T13:20:03.061Z,14
2017-11-18T13:25:03.537Z,7
2017-11-18T13:30:03.252Z,7
2017-11-18T13:35:02.915Z,7
2017-11-18T13:40:03.543Z,5
2017-11-18T13:45:03.021Z,9
2017-11-18T13:50:03.483Z,8
2017-11-18T13:55:02.940Z,6
2017-11-18T14:00:02.797Z,6
2017-11-18T14:05:03.506Z,6
2017-11-18T14:10:03.350Z,4
2017-11-18T14:15:02.893Z,7
2017-11-18T14:20:03.411Z,4
2017-11-18T14:25:02.934Z,6
2017-11-18T14:30:03.578Z,5
2017-11-18T14:35:03.195Z,7
2017-11-18T14:40:02.942Z,6
2017-11-18T14:45:03.456Z,7
2017-11-18T14:50:03.235Z,7
2017-11-18T14:55:02.842Z,6
2017-11-18T15:00:03.483Z,5
2017-11-18T15:05:03.196Z,2
2017-11-18T15:10:02.922Z,2
2017-11-18T15:15:03.398Z,5
2017-11-18T15:20:02.975Z,4
2017-11-18T15:25:03.396Z,4
2017-11-18T15:30:03.112Z,3
2017-11-18T15:35:02.813Z,5
2017-11-18T15:40:03.392Z,2
2017-11-18T15:45:03.101Z,2
2017-11-18T15:50:02.768Z,4
2017-11-18T15:55:03.430Z,3
2017-11-18T16:00:03.081Z,3
2017-11-18T16:05:02.725Z,2
2017-11-18T16:10:03.494Z,6
2017-11-18T16:15:03.134Z,4
2017-11-18T16:20:02.773Z,7
2017-11-18T16:25:03.243Z,5
2017-11-18T16:30:02.785Z,4
2017-11-18T16:35:03.473Z,2
2017-11-18T16:40:03.087Z,3
2017-11-18T16:45:03.550Z,3
2017-11-18T16:50:03.058Z,3
2017-11-18T16:55:03.566Z,5
2017-11-18T17:00:03.241Z,6
2017-11-18T17:05:02.870Z,7
2017-11-18T17:10:03.581Z,4
2017-11-18T17:15:03.120Z,3
2017-11-18T17:20:03.633Z,3
2017-11-18T17:25:03.084Z,3
2017-11-18T17:30:02.827Z,3
2017-11-18T17:35:03.372Z,4
2017-11-18T17:40:03.061Z,2
2017-11-18T17:45:03.570Z,3
2017-11-18T17:50:03.116Z,4
2017-11-18T17:55:03.652Z,5
2017-11-18T18:00:03.034Z,3
2017-11-18T18:05:03.646Z,2
2017-11-18T18:10:03.366Z,4
2017-11-18T18:15:02.963Z,1
2017-11-18T18:20:03.616Z,4
2017-11-18T18:25:03.349Z,5
2017-11-18T18:30:02.866Z,7
2017-11-18T18:35:03.627Z,4
2017-11-18T18:40:03.453Z,1
2017-11-18T18:45:02.937Z,5
2017-11-18T18:50:03.510Z,4
2017-11-18T18:55:02.926Z,4
2017-11-18T19:00:03.401Z,8
2017-11-18T19:05:03.072Z,4
2017-11-18T19:10:02.727Z,3
2017-11-18T19:15:03.342Z,5
2017-11-18T19:20:02.878Z,4
2017-11-18T19:25:03.401Z,3
2017-11-18T19:30:03.029Z,3
2017-11-18T19:35:02.646Z,4
2017-11-18T19:40:03.359Z,5
2017-11-18T19:50:02.713Z,3
2017-11-18T19:55:03.203Z,4
2017-11-18T20:00:02.882Z,4
2017-11-18T20:05:03.368Z,4
2017-11-18T20:10:02.844Z,3
2017-11-18T20:15:03.385Z,6
2017-11-18T20:20:03.029Z,6
2017-11-18T20:25:02.715Z,5
2017-11-18T20:30:03.466Z,4
2017-11-18T20:35:03.089Z,3
2017-11-18T20:40:02.629Z,5
2017-11-18T20:45:03.325Z,3
2017-11-18T20:50:02.953Z,3
2017-11-18T20:55:03.469Z,4
2017-11-18T21:00:03.187Z,2
2017-11-18T21:05:02.702Z,3
2017-11-18T21:10:03.194Z,5
2017-11-18T21:15:02.824Z,3
2017-11-18T21:20:03.348Z,3
2017-11-18T21:25:02.869Z,3
2017-11-18T21:30:03.507Z,5
2017-11-18T21:35:02.972Z,4
2017-11-18T21:40:03.561Z,5
2017-11-18T21:45:03.055Z,4
2017-11-18T21:50:02.714Z,6
2017-11-18T21:55:03.348Z,4
2017-11-18T22:00:02.734Z,3
2017-11-18T22:05:03.151Z,4
2017-11-18T22:10:02.814Z,5
2017-11-18T22:15:03.256Z,3
2017-11-18T22:20:02.772Z,3
2017-11-18T22:25:03.517Z,3
2017-11-18T22:30:03.020Z,1
2017-11-18T22:35:03.524Z,0
2017-11-18T22:40:03.085Z,0
2017-11-18T22:45:02.654Z,2
2017-11-18T22:50:03.138Z,2
2017-11-18T22:55:02.675Z,0
2017-11-18T23:00:03.198Z,4
2017-11-18T23:05:03.311Z,2
2017-11-18T23:10:03.059Z,2
2017-11-18T23:15:02.634Z,4
2017-11-18T23:20:03.285Z,3
2017-11-18T23:25:02.859Z,4
2017-11-18T23:30:03.310Z,3
2017-11-18T23:35:02.770Z,6
2017-11-18T23:40:03.329Z,4
2017-11-18T23:45:02.754Z,3
2017-11-18T23:50:03.179Z,4
2017-11-18T23:55:02.783Z,2
